Pleasant Hill, Illinois
Current Conditions -  °F | °C
As of 8:35 PM on Wednesday 26 Nov 2014 (Local Time) from KPPQ Reporting Station
Overcast Overcast  
Wind Chill: -4°   Ceiling: 400
Heat Index:   Visibility: 3mi
Dew Point: -1°   Wind: 8mph
Humidity: 94%   Direction: 20°NNE
Pressure: 30.13"   Gusts: NA
Location:  39.44°N, 90.87°W
Report Text: KPPQ 270235Z AUTO 02007KT 3SM OVC004 00/M01 A3013 RMK AO2 T10021010 PWINO
Loading
Personal Weather Stations






























Interactive Weather Map New forecast layout! Learn more

10-Day Weather Forecast

Advertisements
Track Severe Weather on mobile